createdAt,value
2018-08-28T00:00:46.385Z,2.60
2018-08-28T00:03:15.507Z,3.77
2018-08-28T00:05:44.666Z,3.20
2018-08-28T00:08:13.772Z,3.20
2018-08-28T00:10:42.861Z,3.57
2018-08-28T00:13:11.952Z,3.40
2018-08-28T00:15:41.057Z,3.00
2018-08-28T00:18:10.152Z,3.20
2018-08-28T00:20:39.340Z,3.33
2018-08-28T00:23:08.436Z,2.43
2018-08-28T00:25:37.636Z,3.40
2018-08-28T00:28:06.731Z,3.03
2018-08-28T00:30:35.836Z,2.70
2018-08-28T00:33:05.049Z,3.03
2018-08-28T00:35:34.116Z,3.40
2018-08-28T00:38:03.208Z,3.00
2018-08-28T00:40:32.332Z,2.77
2018-08-28T00:43:01.424Z,2.67
2018-08-28T00:45:30.598Z,2.97
2018-08-28T00:47:59.720Z,3.13
2018-08-28T00:50:28.896Z,2.60
2018-08-28T00:52:57.990Z,2.30
2018-08-28T00:55:27.122Z,2.77
2018-08-28T00:57:56.297Z,2.73
2018-08-28T01:00:25.377Z,3.00
2018-08-28T01:02:54.497Z,3.10
2018-08-28T01:05:24.538Z,2.93
2018-08-28T01:07:54.073Z,3.03
2018-08-28T01:10:23.272Z,2.43
2018-08-28T01:12:52.361Z,3.67
2018-08-28T01:15:21.440Z,3.30
2018-08-28T01:17:50.603Z,2.57
2018-08-28T01:20:19.688Z,2.73
2018-08-28T01:22:48.867Z,2.57
2018-08-28T01:25:17.959Z,3.23
2018-08-28T01:27:47.041Z,2.67
2018-08-28T01:30:20.309Z,2.80
2018-08-28T01:32:49.385Z,3.40
2018-08-28T01:35:18.647Z,3.00
2018-08-28T01:37:47.755Z,3.33
2018-08-28T01:40:16.837Z,3.17
2018-08-28T01:42:45.937Z,2.17
2018-08-28T01:45:15.142Z,2.90
2018-08-28T01:47:44.243Z,2.90
2018-08-28T01:50:13.439Z,2.90
2018-08-28T01:52:42.529Z,3.07
2018-08-28T01:55:11.618Z,3.00
2018-08-28T01:57:40.709Z,3.27
2018-08-28T02:00:09.827Z,3.30
2018-08-28T02:02:39.077Z,3.40
2018-08-28T02:05:08.557Z,3.00
2018-08-28T02:07:37.761Z,2.60
2018-08-28T02:10:07.621Z,3.20
2018-08-28T02:12:36.937Z,3.10
2018-08-28T02:15:06.149Z,2.70
2018-08-28T02:17:35.329Z,2.97
2018-08-28T02:20:04.919Z,3.20
2018-08-28T02:22:34.146Z,2.90
2018-08-28T02:25:03.227Z,3.57
2018-08-28T02:27:32.419Z,2.80
2018-08-28T02:30:01.501Z,3.57
2018-08-28T02:32:30.863Z,3.87
2018-08-28T02:34:59.998Z,3.80
2018-08-28T02:37:29.274Z,3.77
2018-08-28T02:39:58.531Z,3.20
2018-08-28T02:42:27.612Z,3.47
2018-08-28T02:44:56.696Z,2.93
2018-08-28T02:47:25.796Z,3.70
2018-08-28T02:49:54.994Z,3.80
2018-08-28T02:52:24.122Z,3.33
2018-08-28T02:54:53.280Z,3.23
2018-08-28T02:57:22.352Z,3.93
2018-08-28T02:59:51.448Z,3.40
2018-08-28T03:02:20.585Z,4.00
2018-08-28T03:04:49.755Z,3.70
2018-08-28T03:07:18.876Z,3.97
2018-08-28T03:09:48.063Z,4.00
2018-08-28T03:12:17.156Z,5.07
2018-08-28T03:14:46.255Z,4.10
2018-08-28T03:17:15.368Z,3.90
2018-08-28T03:19:44.465Z,4.07
2018-08-28T03:22:13.661Z,3.73
2018-08-28T03:24:42.824Z,4.33
2018-08-28T03:27:11.925Z,4.73
2018-08-28T03:29:41.019Z,4.13
2018-08-28T03:32:10.113Z,3.67
2018-08-28T03:34:39.205Z,4.10
2018-08-28T03:37:08.420Z,4.07
2018-08-28T03:39:37.528Z,3.93
2018-08-28T03:42:06.728Z,5.20
2018-08-28T03:44:35.935Z,3.87
2018-08-28T03:47:05.108Z,4.40
2018-08-28T03:49:34.416Z,5.27
2018-08-28T03:52:03.924Z,5.40
2018-08-28T03:54:33.020Z,4.80
2018-08-28T03:57:02.104Z,4.67
2018-08-28T03:59:31.214Z,5.10
2018-08-28T04:02:00.296Z,4.10
2018-08-28T04:04:29.383Z,4.70
2018-08-28T04:06:58.476Z,4.10
2018-08-28T04:09:27.568Z,3.20
2018-08-28T04:11:56.671Z,3.97
2018-08-28T04:14:25.928Z,4.70
2018-08-28T04:16:55.040Z,4.30
2018-08-28T04:19:24.124Z,3.93
2018-08-28T04:21:53.256Z,3.87
2018-08-28T04:24:22.348Z,5.60
2018-08-28T04:26:51.452Z,4.27
2018-08-28T04:29:20.648Z,4.60
2018-08-28T04:31:49.729Z,5.10
2018-08-28T04:34:18.824Z,4.70
2018-08-28T04:36:47.919Z,4.70
2018-08-28T04:39:17.019Z,5.27
2018-08-28T04:41:46.146Z,4.70
2018-08-28T04:44:15.320Z,4.50
2018-08-28T04:46:44.415Z,6.30
2018-08-28T04:49:13.501Z,5.07
2018-08-28T04:51:42.612Z,4.60
2018-08-28T04:54:11.761Z,4.67
2018-08-28T04:56:40.892Z,4.83
2018-08-28T04:59:10.211Z,5.63
2018-08-28T05:01:39.283Z,4.80
2018-08-28T05:04:08.386Z,4.40
2018-08-28T05:06:37.526Z,5.23
2018-08-28T05:09:07.144Z,5.17
2018-08-28T05:11:36.443Z,4.00
2018-08-28T05:14:05.520Z,4.10
2018-08-28T05:16:34.671Z,5.33
2018-08-28T05:19:03.816Z,5.13
2018-08-28T05:21:32.955Z,5.17
2018-08-28T05:24:02.073Z,7.07
2018-08-28T05:26:31.163Z,4.17
2018-08-28T05:29:00.298Z,5.50
2018-08-28T05:31:29.461Z,4.67
2018-08-28T05:33:58.545Z,5.00
2018-08-28T05:36:27.861Z,4.50
2018-08-28T05:38:56.953Z,4.70
2018-08-28T05:41:26.114Z,5.80
2018-08-28T05:43:55.256Z,5.43
2018-08-28T05:46:24.424Z,6.07
2018-08-28T05:48:53.537Z,6.80
2018-08-28T05:51:22.901Z,4.87
2018-08-28T05:53:52.040Z,5.40
2018-08-28T05:56:21.167Z,5.03
2018-08-28T05:58:50.818Z,6.00
2018-08-28T06:01:20.120Z,5.97
2018-08-28T06:03:49.188Z,5.43
2018-08-28T06:06:18.340Z,5.43
2018-08-28T06:08:47.499Z,4.90
2018-08-28T06:11:16.571Z,5.13
2018-08-28T06:13:45.728Z,5.10
2018-08-28T06:16:14.908Z,6.40
2018-08-28T06:18:44.010Z,5.20
2018-08-28T06:21:13.210Z,4.40
2018-08-28T06:23:42.293Z,4.10
2018-08-28T06:26:11.495Z,5.10
2018-08-28T06:28:40.815Z,4.20
2018-08-28T06:31:09.908Z,4.30
2018-08-28T06:33:39.086Z,4.10
2018-08-28T06:36:08.189Z,4.70
2018-08-28T06:38:37.387Z,4.27
2018-08-28T06:41:06.580Z,5.00
2018-08-28T06:43:35.757Z,4.53
2018-08-28T06:46:04.810Z,4.70
2018-08-28T06:48:33.901Z,3.90
2018-08-28T06:51:03.047Z,3.60
2018-08-28T06:53:32.157Z,2.70
2018-08-28T06:56:01.350Z,3.30
2018-08-28T06:58:30.460Z,3.00
2018-08-28T07:00:59.651Z,2.60
2018-08-28T07:03:28.766Z,2.23
2018-08-28T07:05:58.093Z,2.70
2018-08-28T07:08:27.172Z,2.87
2018-08-28T07:10:56.261Z,3.17
2018-08-28T07:13:25.409Z,2.37
2018-08-28T07:15:54.612Z,3.30
2018-08-28T07:18:23.721Z,2.83
2018-08-28T07:20:52.824Z,3.03
2018-08-28T07:23:21.939Z,3.60
2018-08-28T07:25:51.292Z,2.53
2018-08-28T07:28:20.215Z,2.80
2018-08-28T07:30:49.296Z,3.40
2018-08-28T07:33:18.550Z,3.03
2018-08-28T07:35:47.710Z,3.80
2018-08-28T07:38:16.888Z,2.90
2018-08-28T07:40:46.104Z,3.20
2018-08-28T07:43:15.396Z,2.90
2018-08-28T07:45:44.488Z,2.90
2018-08-28T07:48:13.684Z,3.80
2018-08-28T07:50:42.813Z,3.73
2018-08-28T07:53:11.904Z,3.63
2018-08-28T07:55:41.064Z,2.90
2018-08-28T07:58:10.168Z,3.60
2018-08-28T08:00:39.356Z,3.47
2018-08-28T08:03:08.456Z,2.90
2018-08-28T08:05:37.598Z,3.87
2018-08-28T08:08:06.746Z,3.87
2018-08-28T08:10:35.973Z,3.07
2018-08-28T08:13:04.967Z,3.47
2018-08-28T08:15:34.095Z,4.43
2018-08-28T08:18:03.141Z,3.10
2018-08-28T08:20:32.269Z,3.13
2018-08-28T08:23:01.419Z,2.80
2018-08-28T08:25:30.509Z,3.20
2018-08-28T08:27:59.780Z,3.23
2018-08-28T08:30:28.812Z,3.23
2018-08-28T08:32:57.929Z,3.30
2018-08-28T08:35:27.102Z,3.17
2018-08-28T08:37:56.212Z,3.03
2018-08-28T08:40:25.306Z,3.03
2018-08-28T08:42:54.400Z,2.97
2018-08-28T08:45:23.490Z,6.20
2018-08-28T08:47:52.832Z,3.50
2018-08-28T08:50:21.988Z,4.43
2018-08-28T08:52:51.094Z,4.13
2018-08-28T08:55:20.178Z,3.20
2018-08-28T08:57:49.380Z,3.57
2018-08-28T09:00:18.678Z,2.60
2018-08-28T09:02:48.061Z,4.30
2018-08-28T09:05:17.172Z,4.13
2018-08-28T09:07:46.264Z,3.40
2018-08-28T09:10:15.447Z,3.63
2018-08-28T09:12:44.589Z,3.67
2018-08-28T09:15:13.758Z,3.60
2018-08-28T09:17:42.863Z,3.33
2018-08-28T09:20:11.963Z,3.57
2018-08-28T09:22:41.063Z,4.23
2018-08-28T09:25:10.229Z,3.43
2018-08-28T09:27:39.357Z,4.50
2018-08-28T09:30:08.990Z,5.63
2018-08-28T09:32:38.225Z,4.47
2018-08-28T09:35:07.389Z,5.10
2018-08-28T09:37:36.562Z,5.03
2018-08-28T09:40:06.253Z,4.63
2018-08-28T09:42:35.469Z,4.70
2018-08-28T09:45:04.662Z,4.30
2018-08-28T09:47:33.836Z,5.13
2018-08-28T09:50:03.053Z,5.13
2018-08-28T09:52:32.133Z,4.60
2018-08-28T09:55:01.231Z,3.90
2018-08-28T09:57:30.344Z,4.43
2018-08-28T09:59:59.519Z,4.27
2018-08-28T10:02:28.721Z,4.00
2018-08-28T10:04:57.922Z,3.77
2018-08-28T10:07:27.010Z,3.70
2018-08-28T10:09:56.193Z,4.37
2018-08-28T10:12:25.321Z,4.37
2018-08-28T10:14:54.496Z,4.43
2018-08-28T10:17:23.670Z,4.10
2018-08-28T10:19:52.808Z,4.30
2018-08-28T10:22:21.992Z,4.63
2018-08-28T10:24:51.074Z,4.70
2018-08-28T10:27:20.297Z,4.57
2018-08-28T10:29:49.370Z,4.00
2018-08-28T10:32:18.467Z,4.20
2018-08-28T10:34:47.588Z,5.20
2018-08-28T10:37:16.694Z,4.73
2018-08-28T10:39:45.859Z,5.00
2018-08-28T10:42:15.148Z,4.33
2018-08-28T10:44:44.344Z,5.00
2018-08-28T10:47:13.516Z,4.40
2018-08-28T10:49:42.900Z,4.70
2018-08-28T10:52:12.050Z,5.27
2018-08-28T10:54:41.149Z,5.00
2018-08-28T10:57:10.359Z,4.80
2018-08-28T10:59:39.561Z,4.27
2018-08-28T11:02:08.673Z,4.63
2018-08-28T11:04:37.831Z,5.17
2018-08-28T11:07:06.861Z,5.00
2018-08-28T11:09:36.017Z,5.13
2018-08-28T11:12:05.132Z,4.43
2018-08-28T11:14:34.241Z,5.87
2018-08-28T11:17:03.353Z,6.23
2018-08-28T11:19:32.936Z,6.37
2018-08-28T11:22:02.107Z,6.43
2018-08-28T11:24:31.213Z,5.80
2018-08-28T11:27:00.433Z,6.20
2018-08-28T11:29:29.697Z,5.63
2018-08-28T11:31:58.805Z,6.37
2018-08-28T11:34:27.931Z,6.40
2018-08-28T11:36:57.286Z,6.63
2018-08-28T11:39:26.352Z,5.73
2018-08-28T11:41:55.642Z,5.50
2018-08-28T11:44:24.784Z,6.20
2018-08-28T11:46:53.872Z,5.50
2018-08-28T11:49:23.006Z,5.00
2018-08-28T11:51:52.332Z,6.50
2018-08-28T11:54:21.432Z,5.90
2018-08-28T11:56:50.534Z,5.40
2018-08-28T11:59:19.613Z,5.73
2018-08-28T12:01:48.773Z,6.17
2018-08-28T12:04:17.871Z,6.20
2018-08-28T12:06:46.992Z,5.93
2018-08-28T12:09:16.157Z,6.20
2018-08-28T12:11:45.358Z,5.47
2018-08-28T12:14:14.507Z,5.93
2018-08-28T12:16:43.642Z,6.80
2018-08-28T12:19:12.744Z,7.17
2018-08-28T12:21:42.010Z,6.17
2018-08-28T12:24:11.232Z,6.77
2018-08-28T12:26:40.419Z,6.30
2018-08-28T12:29:09.463Z,6.70
2018-08-28T12:31:38.584Z,6.58
2018-08-28T12:34:07.651Z,5.62
2018-08-28T12:36:36.899Z,6.92
2018-08-28T12:39:06.988Z,6.70
2018-08-28T12:41:36.216Z,6.42
2018-08-28T12:44:05.478Z,5.95
2018-08-28T12:46:34.537Z,5.87
2018-08-28T12:49:03.785Z,5.33
2018-08-28T12:51:32.992Z,4.92
2018-08-28T12:54:02.037Z,5.85
2018-08-28T12:56:31.105Z,6.40
2018-08-28T12:59:00.214Z,6.28
2018-08-28T13:01:29.412Z,5.70
2018-08-28T13:03:59.477Z,5.72
2018-08-28T13:06:28.765Z,7.85
2018-08-28T13:08:58.080Z,6.20
2018-08-28T13:11:27.872Z,5.85
2018-08-28T13:13:57.172Z,5.95
2018-08-28T13:16:26.264Z,6.97
2018-08-28T13:18:55.442Z,5.20
2018-08-28T13:21:24.728Z,5.30
2018-08-28T13:23:53.976Z,5.47
2018-08-28T13:26:23.076Z,6.72
2018-08-28T13:28:52.221Z,6.12
2018-08-28T13:31:21.308Z,5.87
2018-08-28T13:33:50.427Z,5.92
2018-08-28T13:36:20.210Z,6.10
2018-08-28T13:38:49.301Z,5.75
2018-08-28T13:41:18.430Z,5.37
2018-08-28T13:43:47.511Z,5.78
2018-08-28T13:46:16.599Z,5.90
2018-08-28T13:48:45.730Z,5.67
2018-08-28T13:51:15.120Z,5.58
2018-08-28T13:53:44.427Z,5.75
2018-08-28T13:56:13.494Z,5.15
2018-08-28T13:58:42.598Z,5.92
2018-08-28T14:01:11.756Z,5.50
2018-08-28T14:03:40.841Z,5.15
2018-08-28T14:06:09.979Z,5.47
2018-08-28T14:08:39.110Z,5.80
2018-08-28T14:11:08.277Z,7.17
2018-08-28T14:13:37.544Z,6.95
2018-08-28T14:16:06.593Z,5.22
2018-08-28T14:18:35.846Z,5.97
2018-08-28T14:21:04.968Z,4.90
2018-08-28T14:23:34.139Z,5.12
2018-08-28T14:26:03.209Z,5.62
2018-08-28T14:28:32.333Z,5.60
2018-08-28T14:31:01.412Z,5.22
2018-08-28T14:33:30.548Z,5.92
2018-08-28T14:35:59.643Z,5.65
2018-08-28T14:38:28.820Z,5.40
2018-08-28T14:40:57.925Z,5.80
2018-08-28T14:43:26.999Z,5.42
2018-08-28T14:45:56.113Z,5.55
2018-08-28T14:48:25.180Z,5.37
2018-08-28T14:50:54.286Z,5.42
2018-08-28T14:53:23.396Z,6.03
2018-08-28T14:55:52.508Z,6.03
2018-08-28T14:58:21.688Z,5.30
2018-08-28T15:00:50.794Z,5.37
2018-08-28T15:03:19.894Z,5.78
2018-08-28T15:05:48.972Z,6.30
2018-08-28T15:08:18.075Z,5.80
2018-08-28T15:10:47.180Z,5.87
2018-08-28T15:13:16.451Z,6.20
2018-08-28T15:15:45.506Z,6.65
2018-08-28T15:18:14.658Z,5.95
2018-08-28T15:20:43.838Z,6.22
2018-08-28T15:23:12.966Z,5.92
2018-08-28T15:25:42.153Z,6.50
2018-08-28T15:28:11.553Z,6.20
2018-08-28T15:30:40.633Z,6.42
2018-08-28T15:33:10.069Z,6.70
2018-08-28T15:35:39.240Z,6.83
2018-08-28T15:38:08.344Z,6.72
2018-08-28T15:40:37.453Z,6.28
2018-08-28T15:43:06.677Z,7.12
2018-08-28T15:45:35.720Z,6.75
2018-08-28T15:48:04.941Z,5.78
2018-08-28T15:50:34.120Z,6.35
2018-08-28T15:53:03.274Z,7.35
2018-08-28T15:55:32.425Z,7.45
2018-08-28T15:58:01.921Z,7.17
2018-08-28T16:00:31.029Z,7.87
2018-08-28T16:03:00.220Z,7.95
2018-08-28T16:05:29.328Z,7.65
2018-08-28T16:07:58.389Z,7.50
2018-08-28T16:10:27.460Z,7.92
2018-08-28T16:12:56.578Z,7.37
2018-08-28T16:15:25.778Z,7.85
2018-08-28T16:17:54.877Z,8.13
2018-08-28T16:20:23.992Z,8.13
2018-08-28T16:22:58.577Z,8.50
2018-08-28T16:25:27.704Z,7.62
2018-08-28T16:27:56.824Z,7.87
2018-08-28T16:30:25.993Z,6.72
2018-08-28T16:32:55.179Z,7.60
2018-08-28T16:35:24.343Z,8.05
2018-08-28T16:37:53.593Z,7.28
2018-08-28T16:40:22.779Z,7.28
2018-08-28T16:42:52.187Z,7.10
2018-08-28T16:45:21.281Z,7.15
2018-08-28T16:47:50.505Z,7.62
2018-08-28T16:50:19.910Z,8.13
2018-08-28T16:52:48.884Z,8.43
2018-08-28T16:55:17.989Z,7.70
2018-08-28T16:57:47.196Z,6.62
2018-08-28T17:00:16.402Z,7.67
2018-08-28T17:02:45.653Z,8.13
2018-08-28T17:05:16.704Z,7.30
2018-08-28T17:07:45.832Z,8.03
2018-08-28T17:10:14.984Z,8.10
2018-08-28T17:12:44.196Z,7.60
2018-08-28T17:15:13.312Z,8.13
2018-08-28T17:17:42.450Z,8.87
2018-08-28T17:20:11.608Z,8.37
2018-08-28T17:22:40.779Z,8.37
2018-08-28T17:25:09.876Z,7.93
2018-08-28T17:27:39.075Z,7.60
2018-08-28T17:30:08.303Z,8.00
2018-08-28T17:32:37.406Z,7.90
2018-08-28T17:35:06.800Z,8.90
2018-08-28T17:37:36.005Z,12.37
2018-08-28T17:40:05.378Z,9.37
2018-08-28T17:42:34.581Z,8.40
2018-08-28T17:45:03.749Z,8.07
2018-08-28T17:47:32.879Z,8.90
2018-08-28T17:50:02.067Z,8.83
2018-08-28T17:52:31.179Z,9.37
2018-08-28T17:55:01.155Z,9.00
2018-08-28T17:57:30.352Z,8.67
2018-08-28T17:59:59.464Z,9.27
2018-08-28T18:02:28.556Z,8.93
2018-08-28T18:04:57.673Z,8.60
2018-08-28T18:07:26.899Z,8.03
2018-08-28T18:09:56.056Z,9.90
2018-08-28T18:12:25.287Z,9.10
2018-08-28T18:14:54.530Z,9.13
2018-08-28T18:17:23.640Z,9.50
2018-08-28T18:19:52.723Z,10.73
2018-08-28T18:22:21.980Z,9.10
2018-08-28T18:24:51.147Z,9.00
2018-08-28T18:27:20.369Z,8.80
2018-08-28T18:29:49.569Z,9.67
2018-08-28T18:32:18.733Z,8.83
2018-08-28T18:34:47.912Z,9.97
2018-08-28T18:37:17.028Z,10.20
2018-08-28T18:39:46.215Z,10.80
2018-08-28T18:42:15.332Z,10.63
2018-08-28T18:44:44.520Z,10.77
2018-08-28T18:47:13.700Z,10.20
2018-08-28T18:49:42.828Z,10.10
2018-08-28T18:52:11.915Z,10.50
2018-08-28T18:54:41.020Z,11.93
2018-08-28T18:57:10.210Z,11.23
2018-08-28T18:59:39.416Z,12.00
2018-08-28T19:02:08.526Z,10.37
2018-08-28T19:04:37.622Z,11.03
2018-08-28T19:07:06.789Z,10.60
2018-08-28T19:09:35.888Z,10.80
2018-08-28T19:12:04.992Z,10.23
2018-08-28T19:14:34.162Z,10.53
2018-08-28T19:17:03.267Z,11.20
2018-08-28T19:19:32.529Z,10.93
2018-08-28T19:22:01.655Z,11.60
2018-08-28T19:24:30.851Z,10.87
2018-08-28T19:26:59.952Z,10.30
2018-08-28T19:29:29.227Z,9.50
2018-08-28T19:31:58.342Z,10.07
2018-08-28T19:34:27.489Z,10.43
2018-08-28T19:36:56.645Z,9.63
2018-08-28T19:39:25.763Z,10.40
2018-08-28T19:41:54.945Z,9.47
2018-08-28T19:44:24.252Z,10.30
2018-08-28T19:46:53.785Z,10.30
2018-08-28T19:49:23.069Z,9.77
2018-08-28T19:51:52.522Z,9.70
2018-08-28T19:54:21.717Z,9.20
2018-08-28T19:56:50.844Z,10.37
2018-08-28T19:59:19.936Z,12.10
2018-08-28T20:01:49.115Z,10.10
2018-08-28T20:04:18.350Z,10.37
2018-08-28T20:06:47.454Z,10.37
2018-08-28T20:09:16.568Z,10.20
2018-08-28T20:11:45.785Z,10.87
2018-08-28T20:14:15.164Z,11.40
2018-08-28T20:16:44.346Z,11.33
2018-08-28T20:19:13.648Z,9.73
2018-08-28T20:21:42.764Z,10.20
2018-08-28T20:24:11.892Z,10.10
2018-08-28T20:26:41.122Z,11.07
2018-08-28T20:29:10.314Z,9.83
2018-08-28T20:31:39.400Z,12.30
2018-08-28T20:34:08.582Z,9.73
2018-08-28T20:36:37.710Z,10.83
2018-08-28T20:39:07.159Z,10.63
2018-08-28T20:41:37.018Z,10.23
2018-08-28T20:44:06.556Z,9.87
2018-08-28T20:46:36.009Z,10.20
2018-08-28T20:49:05.330Z,10.60
2018-08-28T20:51:34.472Z,10.00
2018-08-28T20:54:03.661Z,9.90
2018-08-28T20:56:32.804Z,10.80
2018-08-28T20:59:02.008Z,11.07
2018-08-28T21:01:31.096Z,10.60
2018-08-28T21:04:00.205Z,10.70
2018-08-28T21:06:29.465Z,10.70
2018-08-28T21:08:58.597Z,10.10
2018-08-28T21:11:27.829Z,10.40
2018-08-28T21:13:56.937Z,11.23
2018-08-28T21:16:26.061Z,11.80
2018-08-28T21:18:55.181Z,10.73
2018-08-28T21:21:24.290Z,12.30
2018-08-28T21:23:53.473Z,11.30
2018-08-28T21:26:22.748Z,11.67
2018-08-28T21:28:51.892Z,10.70
2018-08-28T21:31:21.072Z,11.90
2018-08-28T21:33:50.258Z,10.50
2018-08-28T21:36:19.872Z,10.07
2018-08-28T21:38:49.064Z,11.53
2018-08-28T21:41:18.234Z,10.67
2018-08-28T21:43:47.352Z,9.93
2018-08-28T21:46:16.591Z,11.20
2018-08-28T21:48:45.680Z,10.60
2018-08-28T21:51:14.792Z,11.23
2018-08-28T21:53:43.941Z,11.90
2018-08-28T21:56:13.127Z,11.17
2018-08-28T21:58:42.243Z,10.57
2018-08-28T22:01:12.224Z,10.83
2018-08-28T22:03:42.625Z,11.27
2018-08-28T22:06:17.174Z,11.53
2018-08-28T22:08:46.252Z,10.17
2018-08-28T22:11:15.362Z,12.87
2018-08-28T22:13:44.604Z,11.00
2018-08-28T22:16:13.732Z,12.97
2018-08-28T22:18:42.824Z,11.57
2018-08-28T22:21:11.966Z,12.57
2018-08-28T22:23:41.079Z,11.10
2018-08-28T22:26:10.272Z,11.20
2018-08-28T22:28:39.408Z,10.80
2018-08-28T22:31:08.508Z,11.43
2018-08-28T22:33:37.629Z,11.60
2018-08-28T22:36:06.802Z,11.07
2018-08-28T22:38:35.908Z,10.60
2018-08-28T22:41:05.071Z,10.90
2018-08-28T22:43:34.169Z,11.00
2018-08-28T22:46:03.264Z,11.03
2018-08-28T22:48:32.445Z,12.07
2018-08-28T22:51:01.538Z,11.03
2018-08-28T22:53:30.631Z,11.67
2018-08-28T22:55:59.798Z,11.90
2018-08-28T22:58:28.900Z,12.17
2018-08-28T23:00:57.993Z,11.50
2018-08-28T23:03:27.091Z,12.63
2018-08-28T23:05:56.204Z,13.03
2018-08-28T23:08:25.309Z,12.00
2018-08-28T23:10:54.400Z,13.13
2018-08-28T23:13:23.571Z,12.60
2018-08-28T23:15:52.672Z,11.90
2018-08-28T23:18:21.774Z,12.17
2018-08-28T23:20:50.889Z,14.10
2018-08-28T23:23:20.063Z,10.90
2018-08-28T23:25:49.177Z,12.37
2018-08-28T23:28:18.376Z,12.63
2018-08-28T23:30:47.580Z,13.53
2018-08-28T23:33:16.743Z,12.10
2018-08-28T23:35:45.868Z,13.17
2018-08-28T23:38:14.963Z,12.70
2018-08-28T23:40:44.125Z,12.70
2018-08-28T23:43:13.240Z,13.20
2018-08-28T23:45:42.333Z,12.53
2018-08-28T23:48:11.523Z,12.50
2018-08-28T23:50:40.644Z,12.77
2018-08-28T23:53:09.743Z,13.60
2018-08-28T23:55:39.017Z,12.40
2018-08-28T23:58:08.137Z,12.70
